HPR weather

Safe Regency Platform Heliport
Zonda de Campeche, Chihushua, Mexico

Public forecast

Using degrees Celsius for public forecast. Weather courtesy of forecast.io.

METAR (pilot weather report)

Closest report is Ciudad del Carmen International Airport, 46.8 nm (86.8 km) SSE. Retrieved 2019/06/16 00:21 UTC (0 seconds ago):

MMCE 160021Z 12018KT 2SM +RA BKN015CB BKN300 28/25 A2986 RMK 8/903 RAB18

TAF (pilot weather forecast)

Forecast is more than 6 hours old.

Closest forecast is Ciudad del Carmen International Airport, 46.8 nm (86.8 km) SSE. Retrieved 2019/06/15 18:09 UTC (6 hours ago):

TAF TAF MMCE 151707Z 1518/1618 12012KT 6SM HZ SCT020 BKN090 FM152100 02012KT 6SM HZ BKN020CB BKN090 TEMPO 1522/1602 3SM TSRA FM160300 09008KT 6SM -RA BKN020CB OVC090 FM160600 12010KT 6SM HZ SCT020 BKN090 BECMG 1612/1613 12015KT